createdAt,value
2019-04-01T00:00:41.675Z,16.60
2019-04-01T00:01:41.661Z,13.80
2019-04-01T00:02:41.923Z,17.00
2019-04-01T00:03:41.665Z,15.50
2019-04-01T00:04:41.639Z,13.50
2019-04-01T00:05:41.648Z,16.20
2019-04-01T00:06:41.618Z,17.20
2019-04-01T00:07:41.901Z,14.10
2019-04-01T00:08:41.654Z,16.80
2019-04-01T00:09:41.844Z,13.80
2019-04-01T00:10:41.868Z,13.10
2019-04-01T00:11:41.825Z,14.50
2019-04-01T00:12:41.816Z,15.00
2019-04-01T00:13:41.598Z,14.60
2019-04-01T00:14:41.572Z,12.90
2019-04-01T00:15:41.837Z,20.30
2019-04-01T00:16:41.594Z,14.20
2019-04-01T00:17:41.541Z,15.80
2019-04-01T00:18:41.765Z,13.70
2019-04-01T00:19:41.764Z,13.80
2019-04-01T00:21:44.485Z,13.80
2019-04-01T00:22:41.524Z,13.30
2019-04-01T00:23:41.494Z,13.50
2019-04-01T00:24:41.489Z,16.80
2019-04-01T00:25:41.519Z,17.50
2019-04-01T00:26:41.699Z,13.30
2019-04-01T00:27:41.752Z,12.30
2019-04-01T00:28:41.689Z,15.20
2019-04-01T00:29:41.734Z,12.50
2019-04-01T00:30:41.487Z,15.80
2019-04-01T00:31:41.671Z,13.20
2019-04-01T00:32:41.418Z,11.20
2019-04-01T00:33:41.652Z,11.30
2019-04-01T00:34:41.676Z,11.70
2019-04-01T00:35:41.438Z,14.30
2019-04-01T00:36:41.625Z,10.60
2019-04-01T00:37:41.393Z,12.90
2019-04-01T00:38:41.615Z,11.40
2019-04-01T00:39:41.370Z,13.10
2019-04-01T00:40:41.393Z,14.80
2019-04-01T00:41:41.658Z,16.30
2019-04-01T00:42:41.371Z,10.70
2019-04-01T00:43:41.380Z,9.00
2019-04-01T00:44:41.325Z,13.50
2019-04-01T00:45:41.316Z,13.20
2019-04-01T00:46:41.355Z,14.30
2019-04-01T00:47:41.310Z,9.80
2019-04-01T00:48:41.565Z,11.70
2019-04-01T00:49:41.290Z,8.00
2019-04-01T00:50:41.556Z,10.70
2019-04-01T00:51:41.502Z,12.70
2019-04-01T00:52:41.510Z,9.60
2019-04-01T00:53:41.263Z,14.10
2019-04-01T00:54:41.249Z,9.50
2019-04-01T00:55:41.249Z,11.90
2019-04-01T00:56:41.501Z,12.80
2019-04-01T00:57:41.280Z,10.00
2019-04-01T00:58:41.454Z,13.00
2019-04-01T00:59:41.250Z,9.90
2019-04-01T01:00:41.202Z,10.30
2019-04-01T01:01:41.469Z,11.70
2019-04-01T01:02:41.426Z,10.20
2019-04-01T01:03:41.206Z,11.70
2019-04-01T01:04:41.403Z,13.00
2019-04-01T01:05:41.432Z,12.30
2019-04-01T01:06:41.935Z,11.60
2019-04-01T01:07:41.388Z,10.60
2019-04-01T01:08:41.149Z,10.90
2019-04-01T01:09:41.166Z,8.90
2019-04-01T01:10:41.389Z,11.80
2019-04-01T01:11:41.125Z,9.10
2019-04-01T01:12:41.107Z,7.40
2019-04-01T01:13:41.102Z,11.20
2019-04-01T01:14:41.097Z,9.00
2019-04-01T01:15:41.089Z,10.80
2019-04-01T01:16:41.086Z,10.70
2019-04-01T01:17:42.296Z,10.40
2019-04-01T01:18:41.308Z,10.90
2019-04-01T01:19:41.092Z,10.80
2019-04-01T01:20:41.325Z,10.00
2019-04-01T01:21:41.304Z,11.50
2019-04-01T01:22:41.035Z,11.80
2019-04-01T01:23:41.037Z,14.00
2019-04-01T01:24:41.279Z,9.00
2019-04-01T01:25:41.245Z,11.70
2019-04-01T01:26:41.011Z,9.80
2019-04-01T01:27:41.475Z,10.60
2019-04-01T01:28:41.227Z,9.40
2019-04-01T01:29:40.987Z,10.80
2019-04-01T01:32:13.258Z,7.00
2019-04-01T01:33:13.057Z,6.00
2019-04-01T01:35:06.649Z,8.80
2019-04-01T01:36:06.586Z,7.30
2019-04-01T01:38:00.213Z,9.30
2019-04-01T01:38:59.738Z,12.50
2019-04-01T01:40:53.307Z,11.30
2019-04-01T01:41:53.274Z,8.80
2019-04-01T01:43:46.603Z,10.60
2019-04-01T01:44:46.375Z,15.00
2019-04-01T01:46:39.809Z,7.90
2019-04-01T01:47:39.933Z,6.90
2019-04-01T01:49:33.642Z,6.20
2019-04-01T01:50:33.085Z,8.50
2019-04-01T01:52:26.395Z,8.00
2019-04-01T01:53:26.618Z,8.10
2019-04-01T01:55:19.956Z,9.80
2019-04-01T01:56:19.952Z,6.60
2019-04-01T01:58:12.947Z,9.40
2019-04-01T01:59:12.614Z,6.60
2019-04-01T02:01:06.417Z,10.60
2019-04-01T02:02:06.143Z,12.70
2019-04-01T02:03:59.500Z,4.60
2019-04-01T02:04:59.481Z,6.90
2019-04-01T02:06:54.593Z,6.80
2019-04-01T02:07:54.313Z,8.60
2019-04-01T02:09:47.663Z,5.80
2019-04-01T02:10:47.700Z,6.00
2019-04-01T02:12:41.212Z,5.20
2019-04-01T02:13:41.026Z,5.60
2019-04-01T02:15:34.349Z,6.80
2019-04-01T02:16:34.567Z,7.20
2019-04-01T02:18:27.912Z,5.90
2019-04-01T02:19:27.688Z,6.00
2019-04-01T02:21:21.651Z,8.00
2019-04-01T02:22:21.269Z,6.90
2019-04-01T02:24:14.596Z,6.60
2019-04-01T02:25:14.602Z,6.80
2019-04-01T02:27:07.753Z,6.70
2019-04-01T02:28:07.745Z,9.60
2019-04-01T02:30:01.466Z,5.20
2019-04-01T02:31:01.130Z,6.90
2019-04-01T02:32:54.508Z,7.10
2019-04-01T02:33:54.632Z,6.80
2019-04-01T02:35:48.190Z,7.30
2019-04-01T02:36:48.000Z,7.70
2019-04-01T02:38:41.231Z,8.10
2019-04-01T02:39:41.292Z,7.50
2019-04-01T02:41:34.872Z,5.50
2019-04-01T02:42:34.708Z,9.60
2019-04-01T02:44:28.554Z,6.60
2019-04-01T02:45:28.518Z,7.40
2019-04-01T02:47:22.072Z,7.30
2019-04-01T02:48:21.842Z,5.10
2019-04-01T02:50:15.028Z,5.10
2019-04-01T02:51:15.183Z,5.00
2019-04-01T02:53:08.887Z,7.00
2019-04-01T02:54:08.285Z,5.50
2019-04-01T02:56:01.688Z,6.30
2019-04-01T02:57:01.940Z,5.70
2019-04-01T02:58:54.851Z,8.00
2019-04-01T02:59:54.499Z,7.80
2019-04-01T03:01:47.917Z,8.50
2019-04-01T03:02:48.117Z,5.00
2019-04-01T03:04:41.596Z,4.80
2019-04-01T03:07:13.286Z,4.30
2019-04-01T03:08:13.222Z,7.10
2019-04-01T03:10:06.885Z,5.70
2019-04-01T03:11:10.331Z,5.60
2019-04-01T03:13:00.112Z,5.50
2019-04-01T03:15:54.416Z,4.80
2019-04-01T03:16:53.404Z,4.10
2019-04-01T03:18:46.716Z,4.30
2019-04-01T03:19:46.938Z,6.10
2019-04-01T03:21:40.517Z,6.40
2019-04-01T03:22:40.306Z,5.50
2019-04-01T03:24:33.400Z,9.90
2019-04-01T03:25:33.628Z,6.30
2019-04-01T03:27:26.966Z,5.50
2019-04-01T03:28:26.769Z,6.20
2019-04-01T03:30:20.329Z,7.90
2019-04-01T03:31:20.342Z,6.60
2019-04-01T03:33:13.643Z,4.40
2019-04-01T03:34:13.429Z,6.30
2019-04-01T03:36:07.044Z,7.30
2019-04-01T03:38:39.128Z,6.00
2019-04-01T03:39:39.132Z,10.00
2019-04-01T03:41:32.220Z,7.70
2019-04-01T03:42:32.482Z,6.10
2019-04-01T03:44:26.087Z,9.20
2019-04-01T03:45:25.947Z,10.00
2019-04-01T03:47:19.162Z,7.30
2019-04-01T03:48:18.967Z,5.60
2019-04-01T03:50:13.313Z,8.20
2019-04-01T03:51:12.526Z,7.20
2019-04-01T03:53:05.682Z,11.20
2019-04-01T03:54:05.930Z,5.40
2019-04-01T03:55:59.508Z,5.00
2019-04-01T03:56:59.301Z,4.20
2019-04-01T03:58:52.714Z,5.80
2019-04-01T03:59:53.009Z,4.00
2019-04-01T04:01:46.286Z,8.80
2019-04-01T04:02:45.869Z,4.00
2019-04-01T04:04:39.324Z,4.50
2019-04-01T04:05:39.460Z,8.10
2019-04-01T04:07:32.818Z,6.90
2019-04-01T04:08:32.790Z,6.00
2019-04-01T04:10:26.777Z,4.60
2019-04-01T04:11:26.129Z,3.90
2019-04-01T04:14:51.833Z,3.40
2019-04-01T04:15:51.298Z,6.20
2019-04-01T04:17:44.899Z,6.60
2019-04-01T04:18:44.679Z,4.50
2019-04-01T04:20:37.719Z,4.80
2019-04-01T04:21:37.500Z,4.30
2019-04-01T04:23:31.111Z,6.00
2019-04-01T04:24:31.064Z,3.50
2019-04-01T04:26:24.770Z,4.90
2019-04-01T04:27:24.167Z,5.20
2019-04-01T04:29:17.511Z,5.40
2019-04-01T04:30:17.524Z,7.50
2019-04-01T04:32:11.656Z,4.20
2019-04-01T04:33:11.129Z,6.10
2019-04-01T04:35:04.211Z,5.40
2019-04-01T04:36:04.420Z,5.30
2019-04-01T04:37:58.809Z,5.20
2019-04-01T04:38:59.159Z,4.70
2019-04-01T04:40:52.097Z,6.50
2019-04-01T04:41:52.127Z,7.00
2019-04-01T04:43:46.070Z,10.10
2019-04-01T04:44:45.438Z,8.20
2019-04-01T04:46:39.915Z,12.90
2019-04-01T04:47:39.478Z,10.40
2019-04-01T04:49:33.011Z,8.00
2019-04-01T04:50:32.809Z,6.70
2019-04-01T04:52:26.050Z,7.90
2019-04-01T04:53:26.079Z,6.70
2019-04-01T04:55:19.694Z,6.20
2019-04-01T04:56:19.442Z,6.90
2019-04-01T04:58:13.011Z,6.50
2019-04-01T04:59:13.015Z,5.60
2019-04-01T05:01:06.601Z,5.40
2019-04-01T05:02:06.131Z,6.80
2019-04-01T05:04:06.941Z,8.20
2019-04-01T05:05:00.145Z,6.40
2019-04-01T05:06:53.518Z,6.70
2019-04-01T05:07:53.034Z,4.90
2019-04-01T05:09:53.007Z,4.70
2019-04-01T05:11:53.274Z,4.50
2019-04-01T05:12:53.218Z,5.20
2019-04-01T05:13:53.008Z,11.30
2019-04-01T05:14:53.203Z,7.60
2019-04-01T05:15:52.966Z,5.70
2019-04-01T05:16:53.189Z,6.00
2019-04-01T05:17:53.662Z,5.20
2019-04-01T05:18:52.988Z,5.10
2019-04-01T05:19:53.219Z,5.90
2019-04-01T05:20:52.925Z,9.00
2019-04-01T05:22:53.149Z,6.50
2019-04-01T05:23:52.950Z,5.10
2019-04-01T05:24:52.970Z,3.60
2019-04-01T05:25:53.128Z,6.00
2019-04-01T05:26:53.109Z,6.50
2019-04-01T05:27:53.097Z,8.10
2019-04-01T05:29:52.894Z,5.20
2019-04-01T05:30:52.894Z,6.80
2019-04-01T05:31:52.841Z,4.40
2019-04-01T05:32:53.077Z,3.70
2019-04-01T05:33:55.594Z,5.00
2019-04-01T05:34:52.867Z,5.80
2019-04-01T05:36:53.075Z,3.80
2019-04-01T05:37:52.835Z,4.60
2019-04-01T05:38:53.015Z,10.80
2019-04-01T05:39:53.108Z,5.30
2019-04-01T05:40:53.004Z,4.20
2019-04-01T05:41:52.794Z,3.90
2019-04-01T05:42:52.763Z,5.10
2019-04-01T05:43:53.012Z,5.80
2019-04-01T05:44:52.968Z,3.50
2019-04-01T05:45:52.736Z,6.20
2019-04-01T05:46:52.999Z,4.80
2019-04-01T05:47:52.721Z,4.40
2019-04-01T05:48:52.936Z,3.60
2019-04-01T05:49:53.708Z,5.60
2019-04-01T05:50:53.013Z,5.40
2019-04-01T05:53:25.084Z,3.20
2019-04-01T05:54:24.753Z,2.90
2019-04-01T05:56:18.084Z,3.60
2019-04-01T05:57:18.074Z,3.90
2019-04-01T05:59:11.774Z,3.20
2019-04-01T06:00:11.593Z,4.30
2019-04-01T06:02:05.581Z,3.60
2019-04-01T06:03:04.822Z,4.00
2019-04-01T06:04:58.414Z,3.00
2019-04-01T06:05:58.381Z,4.80
2019-04-01T06:07:51.665Z,2.50
2019-04-01T06:08:51.854Z,3.80
2019-04-01T06:10:45.475Z,4.20
2019-04-01T06:11:44.960Z,3.80
2019-04-01T06:13:38.684Z,4.70
2019-04-01T06:14:38.755Z,4.30
2019-04-01T06:16:31.917Z,3.50
2019-04-01T06:17:31.963Z,5.60
2019-04-01T06:19:25.170Z,3.20
2019-04-01T06:20:25.249Z,3.10
2019-04-01T06:22:18.863Z,3.00
2019-04-01T06:23:18.611Z,2.70
2019-04-01T06:26:44.041Z,3.90
2019-04-01T06:27:43.992Z,5.90
2019-04-01T06:29:37.362Z,4.70
2019-04-01T06:30:37.097Z,2.80
2019-04-01T06:32:32.056Z,3.00
2019-04-01T06:33:30.726Z,2.50
2019-04-01T06:34:30.718Z,2.70
2019-04-01T06:35:30.670Z,3.80
2019-04-01T06:36:30.476Z,3.30
2019-04-01T06:37:30.411Z,2.70
2019-04-01T06:38:30.403Z,5.90
2019-04-01T06:39:30.392Z,4.10
2019-04-01T06:40:30.393Z,2.90
2019-04-01T06:41:30.413Z,2.80
2019-04-01T06:42:30.382Z,4.60
2019-04-01T06:43:30.364Z,2.40
2019-04-01T06:44:30.350Z,4.10
2019-04-01T06:45:30.344Z,2.80
2019-04-01T06:46:30.611Z,3.00
2019-04-01T06:47:30.365Z,3.00
2019-04-01T06:48:30.339Z,2.30
2019-04-01T06:49:30.347Z,3.50
2019-04-01T06:50:30.588Z,2.70
2019-04-01T06:51:30.669Z,3.70
2019-04-01T06:52:30.589Z,4.40
2019-04-01T06:53:30.513Z,9.00
2019-04-01T06:54:30.324Z,5.20
2019-04-01T06:55:30.515Z,3.70
2019-04-01T06:56:30.272Z,3.80
2019-04-01T06:57:30.255Z,5.00
2019-04-01T06:58:30.524Z,9.30
2019-04-01T06:59:30.284Z,6.20
2019-04-01T07:00:30.510Z,10.50
2019-04-01T07:01:30.493Z,12.10
2019-04-01T07:02:30.212Z,7.40
2019-04-01T07:03:30.445Z,8.10
2019-04-01T07:04:30.434Z,12.80
2019-04-01T07:05:30.188Z,8.20
2019-04-01T07:06:30.411Z,3.90
2019-04-01T07:07:30.445Z,8.50
2019-04-01T07:08:30.441Z,11.30
2019-04-01T07:09:30.408Z,9.30
2019-04-01T07:10:30.431Z,12.40
2019-04-01T07:11:30.437Z,10.50
2019-04-01T07:12:30.171Z,7.80
2019-04-01T07:13:30.385Z,6.90
2019-04-01T07:14:30.395Z,6.00
2019-04-01T07:15:30.408Z,5.40
2019-04-01T07:16:30.109Z,8.00
2019-04-01T07:17:30.093Z,6.90
2019-04-01T07:18:30.095Z,7.20
2019-04-01T07:19:30.312Z,7.80
2019-04-01T07:20:30.100Z,9.30
2019-04-01T07:21:30.069Z,7.10
2019-04-01T07:22:30.322Z,6.00
2019-04-01T07:23:30.131Z,8.10
2019-04-01T07:24:30.071Z,8.80
2019-04-01T07:25:33.813Z,3.70
2019-04-01T07:26:30.282Z,6.60
2019-04-01T07:27:30.021Z,5.80
2019-04-01T07:28:30.261Z,6.20
2019-04-01T07:29:30.011Z,8.50
2019-04-01T07:30:30.266Z,10.70
2019-04-01T07:31:29.991Z,7.50
2019-04-01T07:32:29.984Z,5.60
2019-04-01T07:33:29.974Z,7.50
2019-04-01T07:34:30.259Z,7.80
2019-04-01T07:35:31.378Z,6.30
2019-04-01T07:36:30.229Z,8.60
2019-04-01T07:37:29.990Z,4.90
2019-04-01T07:38:30.032Z,4.80
2019-04-01T07:39:30.181Z,4.30
2019-04-01T07:40:30.201Z,4.90
2019-04-01T07:41:29.919Z,4.90
2019-04-01T07:42:30.177Z,4.90
2019-04-01T07:43:29.966Z,5.80
2019-04-01T07:44:30.180Z,8.00
2019-04-01T07:45:29.885Z,4.90
2019-04-01T07:46:30.108Z,3.90
2019-04-01T07:49:02.548Z,4.00
2019-04-01T07:50:02.256Z,5.10
2019-04-01T07:51:55.568Z,2.60
2019-04-01T07:52:55.601Z,4.50
2019-04-01T07:54:49.735Z,3.90
2019-04-01T07:55:48.908Z,4.80
2019-04-01T07:57:42.266Z,4.00
2019-04-01T07:58:42.214Z,6.40
2019-04-01T08:00:35.691Z,3.40
2019-04-01T08:01:35.719Z,5.20
2019-04-01T08:03:28.898Z,1.70
2019-04-01T08:04:29.140Z,2.90
2019-04-01T08:06:22.049Z,5.10
2019-04-01T08:07:22.046Z,3.10
2019-04-01T08:09:15.729Z,3.10
2019-04-01T08:10:15.407Z,7.30
2019-04-01T08:12:08.741Z,3.30
2019-04-01T08:13:08.707Z,4.60
2019-04-01T08:15:02.656Z,2.50
2019-04-01T08:16:01.809Z,4.60
2019-04-01T08:17:55.860Z,3.50
2019-04-01T08:18:55.618Z,4.90
2019-04-01T08:20:48.963Z,2.40
2019-04-01T08:21:52.227Z,2.80
2019-04-01T08:23:42.308Z,3.20
2019-04-01T08:24:42.107Z,2.00
2019-04-01T08:26:35.735Z,4.40
2019-04-01T08:27:35.686Z,3.20
2019-04-01T08:29:30.555Z,2.20
2019-04-01T08:30:28.748Z,3.00
2019-04-01T08:32:22.196Z,4.30
2019-04-01T08:33:22.312Z,2.50
2019-04-01T08:35:15.668Z,2.70
2019-04-01T08:36:15.471Z,2.00
2019-04-01T08:38:08.780Z,2.30
2019-04-01T08:39:08.996Z,3.60
2019-04-01T08:41:02.342Z,5.00
2019-04-01T08:42:02.155Z,3.60
2019-04-01T08:43:55.468Z,2.20
2019-04-01T08:44:55.713Z,3.00
2019-04-01T08:46:49.227Z,7.50
2019-04-01T08:47:49.056Z,3.10
2019-04-01T08:49:41.974Z,2.60
2019-04-01T08:50:41.719Z,3.50
2019-04-01T08:52:35.213Z,2.70
2019-04-01T08:53:35.066Z,2.20
2019-04-01T08:55:28.396Z,3.90
2019-04-01T08:56:28.362Z,4.00
2019-04-01T08:58:22.187Z,3.20
2019-04-01T08:59:21.924Z,2.10
2019-04-01T09:01:15.110Z,2.50
2019-04-01T09:02:17.996Z,1.90
2019-04-01T09:04:08.671Z,9.60
2019-04-01T09:05:08.674Z,5.40
2019-04-01T09:07:02.053Z,3.50
2019-04-01T09:08:01.781Z,2.50
2019-04-01T09:09:55.618Z,1.90
2019-04-01T09:10:55.138Z,2.10
2019-04-01T09:12:48.727Z,2.70
2019-04-01T09:13:48.719Z,2.50
2019-04-01T09:15:42.291Z,3.30
2019-04-01T09:16:42.052Z,1.60
2019-04-01T09:20:07.334Z,2.80
2019-04-01T09:21:07.029Z,2.00
2019-04-01T09:23:00.688Z,3.70
2019-04-01T09:24:00.430Z,3.40
2019-04-01T09:25:53.929Z,1.90
2019-04-01T09:26:53.709Z,1.90
2019-04-01T09:28:47.664Z,2.30
2019-04-01T09:29:47.600Z,4.00
2019-04-01T09:31:40.760Z,1.80
2019-04-01T09:32:40.514Z,1.80
2019-04-01T09:34:34.802Z,2.20
2019-04-01T09:35:33.868Z,2.40
2019-04-01T09:37:27.241Z,4.80
2019-04-01T09:38:27.216Z,4.20
2019-04-01T09:40:20.814Z,3.40
2019-04-01T09:41:20.775Z,4.40
2019-04-01T09:43:14.375Z,2.70
2019-04-01T09:44:13.926Z,2.90
2019-04-01T09:46:07.660Z,3.50
2019-04-01T09:47:07.252Z,2.70
2019-04-01T09:49:01.322Z,3.20
2019-04-01T09:50:01.493Z,2.60
2019-04-01T09:51:55.225Z,2.80
2019-04-01T09:52:55.002Z,2.70
2019-04-01T09:54:48.368Z,3.60
2019-04-01T09:55:48.362Z,3.50
2019-04-01T09:57:43.539Z,4.10
2019-04-01T09:58:43.064Z,2.70
2019-04-01T10:00:36.665Z,3.10
2019-04-01T10:01:36.654Z,2.50
2019-04-01T10:03:30.234Z,3.70
2019-04-01T10:04:29.748Z,3.20
2019-04-01T10:06:22.824Z,2.20
2019-04-01T10:07:22.841Z,3.10
2019-04-01T10:09:16.404Z,3.30
2019-04-01T10:10:16.175Z,4.40
2019-04-01T10:12:09.399Z,2.30
2019-04-01T10:13:09.285Z,2.40
2019-04-01T10:15:02.981Z,3.70
2019-04-01T10:16:02.945Z,2.00
2019-04-01T10:17:56.106Z,3.30
2019-04-01T10:18:56.271Z,2.90
2019-04-01T10:20:49.632Z,2.40
2019-04-01T10:21:49.641Z,3.10
2019-04-01T10:23:42.790Z,3.40
2019-04-01T10:24:42.749Z,3.00
2019-04-01T10:26:36.355Z,2.60
2019-04-01T10:27:36.183Z,2.10
2019-04-01T10:29:29.711Z,2.90
2019-04-01T10:30:29.666Z,3.70
2019-04-01T10:32:23.172Z,2.10
2019-04-01T10:33:22.788Z,2.30
2019-04-01T10:35:16.111Z,5.20
2019-04-01T10:36:17.176Z,3.70
2019-04-01T10:38:27.293Z,3.90
2019-04-01T10:39:27.098Z,2.80
2019-04-01T10:41:20.500Z,4.20
2019-04-01T10:42:20.760Z,2.60
2019-04-01T10:44:17.759Z,3.90
2019-04-01T10:45:18.259Z,4.40
2019-04-01T10:47:10.579Z,2.70
2019-04-01T10:48:10.571Z,2.80
2019-04-01T10:50:04.106Z,4.70
2019-04-01T10:51:04.156Z,4.00
2019-04-01T10:52:57.269Z,4.80
2019-04-01T10:53:57.214Z,3.30
2019-04-01T10:55:50.760Z,3.60
2019-04-01T10:56:50.812Z,3.40
2019-04-01T10:58:44.166Z,4.70
2019-04-01T10:59:43.951Z,3.90
2019-04-01T11:01:37.475Z,3.70
2019-04-01T11:02:37.244Z,3.60
2019-04-01T11:03:37.481Z,8.50
2019-04-01T11:04:37.438Z,4.30
2019-04-01T11:05:37.175Z,5.10
2019-04-01T11:06:37.425Z,4.00
2019-04-01T11:07:37.212Z,4.80
2019-04-01T11:08:37.231Z,2.90
2019-04-01T11:09:38.526Z,3.00
2019-04-01T11:10:37.172Z,3.80
2019-04-01T11:11:37.122Z,3.40
2019-04-01T11:12:37.480Z,4.10
2019-04-01T11:13:37.350Z,3.90
2019-04-01T11:14:37.147Z,6.10
2019-04-01T11:15:37.101Z,4.30
2019-04-01T11:16:37.084Z,3.50
2019-04-01T11:17:37.310Z,4.60
2019-04-01T11:18:37.297Z,2.90
2019-04-01T11:19:37.334Z,4.70
2019-04-01T11:20:37.149Z,3.90
2019-04-01T11:21:37.284Z,5.50
2019-04-01T11:22:37.271Z,4.70
2019-04-01T11:23:37.301Z,5.00
2019-04-01T11:24:37.260Z,5.60
2019-04-01T11:25:37.272Z,4.00
2019-04-01T11:26:37.278Z,3.80
2019-04-01T11:27:37.238Z,5.00
2019-04-01T11:28:37.266Z,3.20
2019-04-01T11:29:37.255Z,6.50
2019-04-01T11:30:37.382Z,3.90
2019-04-01T11:31:37.207Z,6.50
2019-04-01T11:32:37.002Z,5.70
2019-04-01T11:33:37.003Z,4.90
2019-04-01T11:34:37.002Z,4.70
2019-04-01T11:35:37.214Z,4.40
2019-04-01T11:36:37.176Z,4.40
2019-04-01T11:37:37.201Z,9.40
2019-04-01T11:38:36.951Z,8.50
2019-04-01T11:39:36.945Z,8.40
2019-04-01T11:40:38.813Z,4.20
2019-04-01T11:41:37.120Z,7.60
2019-04-01T11:42:40.426Z,8.40
2019-04-01T11:43:37.144Z,4.60
2019-04-01T11:44:37.199Z,4.50
2019-04-01T11:45:36.879Z,4.10
2019-04-01T11:46:37.119Z,5.30
2019-04-01T11:47:37.216Z,6.30
2019-04-01T11:48:36.879Z,6.80
2019-04-01T11:49:37.134Z,7.20
2019-04-01T11:50:36.947Z,6.70
2019-04-01T11:51:39.774Z,9.40
2019-04-01T11:52:38.018Z,7.80
2019-04-01T11:53:37.416Z,5.10
2019-04-01T11:54:36.833Z,8.50
2019-04-01T11:55:36.810Z,7.50
2019-04-01T11:56:36.777Z,7.60
2019-04-01T11:57:36.764Z,7.20
2019-04-01T11:58:36.752Z,8.80
2019-04-01T11:59:37.899Z,6.30
2019-04-01T12:00:37.028Z,6.60
2019-04-01T12:01:37.018Z,7.30
2019-04-01T12:02:36.958Z,5.50
2019-04-01T12:03:36.948Z,7.90
2019-04-01T12:04:36.980Z,8.10
2019-04-01T12:05:36.705Z,9.10
2019-04-01T12:06:36.966Z,6.90
2019-04-01T12:07:36.699Z,10.00
2019-04-01T12:08:36.961Z,12.00
2019-04-01T12:09:36.906Z,11.30
2019-04-01T12:10:36.937Z,9.90
2019-04-01T12:11:36.658Z,13.00
2019-04-01T12:12:36.899Z,11.80
2019-04-01T12:13:36.880Z,13.10
2019-04-01T12:14:36.902Z,12.60
2019-04-01T12:15:36.884Z,11.50
2019-04-01T12:16:36.850Z,11.30
2019-04-01T12:17:36.873Z,14.70
2019-04-01T12:18:36.878Z,12.90
2019-04-01T12:19:36.824Z,11.90
2019-04-01T12:20:37.496Z,9.90
2019-04-01T12:21:40.969Z,14.90
2019-04-01T12:22:36.839Z,14.60
2019-04-01T12:23:36.801Z,13.00
2019-04-01T12:24:36.826Z,12.60
2019-04-01T12:25:36.540Z,11.90
2019-04-01T12:26:36.579Z,11.60
2019-04-01T12:27:36.793Z,9.20
2019-04-01T12:28:36.858Z,13.20
2019-04-01T12:29:36.751Z,14.00
2019-04-01T12:30:36.548Z,15.40
2019-04-01T12:31:36.726Z,12.30
2019-04-01T12:32:36.774Z,11.50
2019-04-01T12:33:36.517Z,11.80
2019-04-01T12:34:36.470Z,10.30
2019-04-01T12:35:36.748Z,10.90
2019-04-01T12:36:36.743Z,13.00
2019-04-01T12:37:36.684Z,15.20
2019-04-01T12:38:36.678Z,15.20
2019-04-01T12:39:36.475Z,14.80
2019-04-01T12:40:36.434Z,11.70
2019-04-01T12:41:36.423Z,14.70
2019-04-01T12:42:36.637Z,14.10
2019-04-01T12:43:36.437Z,10.30
2019-04-01T12:44:36.395Z,16.40
2019-04-01T12:45:36.616Z,13.50
2019-04-01T12:46:36.648Z,14.40
2019-04-01T12:47:36.403Z,15.10
2019-04-01T12:48:36.641Z,9.70
2019-04-01T12:49:36.390Z,12.20
2019-04-01T12:50:36.575Z,11.60
2019-04-01T12:51:36.613Z,13.90
2019-04-01T12:52:36.337Z,14.70
2019-04-01T12:53:36.622Z,10.90
2019-04-01T12:54:36.556Z,11.30
2019-04-01T12:55:36.567Z,11.20
2019-04-01T12:56:36.542Z,13.70
2019-04-01T12:57:36.531Z,14.00
2019-04-01T12:58:36.324Z,11.60
2019-04-01T12:59:36.549Z,11.20
2019-04-01T13:00:36.538Z,12.10
2019-04-01T13:01:36.544Z,12.00
2019-04-01T13:02:36.283Z,12.90
2019-04-01T13:03:36.261Z,13.20
2019-04-01T13:04:36.310Z,13.00
2019-04-01T13:05:36.505Z,13.80
2019-04-01T13:06:36.263Z,9.00
2019-04-01T13:07:36.477Z,16.80
2019-04-01T13:08:36.217Z,11.00
2019-04-01T13:09:36.468Z,11.20
2019-04-01T13:10:36.420Z,8.10
2019-04-01T13:11:36.219Z,9.60
2019-04-01T13:12:36.405Z,8.70
2019-04-01T13:13:36.395Z,8.60
2019-04-01T13:14:36.153Z,9.40
2019-04-01T13:15:36.162Z,9.50
2019-04-01T13:16:36.145Z,10.60
2019-04-01T13:17:36.362Z,8.60
2019-04-01T13:18:38.160Z,14.70
2019-04-01T13:19:36.349Z,10.60
2019-04-01T13:20:38.022Z,11.30
2019-04-01T13:21:36.117Z,11.80
2019-04-01T13:22:37.918Z,11.20
2019-04-01T13:23:36.818Z,10.50
2019-04-01T13:24:36.311Z,12.20
2019-04-01T13:25:36.073Z,10.00
2019-04-01T13:26:36.069Z,10.60
2019-04-01T13:27:36.060Z,10.20
2019-04-01T13:28:36.311Z,16.70
2019-04-01T13:29:36.311Z,11.50
2019-04-01T13:30:36.305Z,8.50
2019-04-01T13:31:36.050Z,14.40
2019-04-01T13:32:36.289Z,12.80
2019-04-01T13:33:36.009Z,8.10
2019-04-01T13:34:36.242Z,9.00
2019-04-01T13:35:39.571Z,10.50
2019-04-01T13:36:35.988Z,10.40
2019-04-01T13:37:36.224Z,11.40
2019-04-01T13:38:36.201Z,12.10
2019-04-01T13:39:35.957Z,10.70
2019-04-01T13:40:36.190Z,12.60
2019-04-01T13:41:42.361Z,13.20
2019-04-01T13:42:36.205Z,10.50
2019-04-01T13:43:36.242Z,11.80
2019-04-01T13:44:37.544Z,9.80
2019-04-01T13:45:36.142Z,11.20
2019-04-01T13:46:36.138Z,11.30
2019-04-01T13:47:35.896Z,9.20
2019-04-01T13:48:36.167Z,12.40
2019-04-01T13:49:36.107Z,11.10
2019-04-01T13:50:35.872Z,12.00
2019-04-01T13:51:36.097Z,11.70
2019-04-01T13:52:36.129Z,11.00
2019-04-01T13:53:35.853Z,10.50
2019-04-01T13:54:36.072Z,10.10
2019-04-01T13:55:35.867Z,11.90
2019-04-01T13:56:36.099Z,11.00
2019-04-01T13:57:36.097Z,8.20
2019-04-01T13:58:36.038Z,14.50
2019-04-01T13:59:48.623Z,12.40
2019-04-01T14:00:35.788Z,11.70
2019-04-01T14:01:36.010Z,11.80
2019-04-01T14:02:35.778Z,11.10
2019-04-01T14:03:35.813Z,10.10
2019-04-01T14:04:36.023Z,12.10
2019-04-01T14:05:35.980Z,13.90
2019-04-01T14:06:36.007Z,10.20
2019-04-01T14:07:35.732Z,13.30
2019-04-01T14:08:35.993Z,10.00
2019-04-01T14:09:35.951Z,14.30
2019-04-01T14:10:35.980Z,11.90
2019-04-01T14:11:35.943Z,12.50
2019-04-01T14:12:35.723Z,11.30
2019-04-01T14:13:35.953Z,10.20
2019-04-01T14:14:35.680Z,13.90
2019-04-01T14:15:35.674Z,10.90
2019-04-01T14:16:35.700Z,14.60
2019-04-01T14:17:35.697Z,11.40
2019-04-01T14:18:35.677Z,15.00
2019-04-01T14:19:35.638Z,13.30
2019-04-01T14:20:35.632Z,13.70
2019-04-01T14:21:35.852Z,13.60
2019-04-01T14:22:35.845Z,13.90
2019-04-01T14:23:35.609Z,14.30
2019-04-01T14:24:35.598Z,11.20
2019-04-01T14:25:35.829Z,13.50
2019-04-01T14:26:35.814Z,14.90
2019-04-01T14:27:35.809Z,14.90
2019-04-01T14:28:35.575Z,11.70
2019-04-01T14:29:36.638Z,12.20
2019-04-01T14:30:36.367Z,10.60
2019-04-01T14:31:35.862Z,13.80
2019-04-01T14:32:35.543Z,13.10
2019-04-01T14:33:35.528Z,11.60
2019-04-01T14:34:35.877Z,13.40
2019-04-01T14:35:36.059Z,12.20
2019-04-01T14:36:35.742Z,10.90
2019-04-01T14:37:35.541Z,13.40
2019-04-01T14:38:35.524Z,14.30
2019-04-01T14:39:35.483Z,11.20
2019-04-01T14:40:35.713Z,14.90
2019-04-01T14:41:35.744Z,12.40
2019-04-01T14:42:37.118Z,13.80
2019-04-01T14:43:35.687Z,12.00
2019-04-01T14:44:36.607Z,9.50
2019-04-01T14:45:35.465Z,12.00
2019-04-01T14:46:35.659Z,12.70
2019-04-01T14:47:35.683Z,11.20
2019-04-01T14:48:35.441Z,14.50
2019-04-01T14:49:35.637Z,16.20
2019-04-01T14:50:35.665Z,12.30
2019-04-01T14:51:35.612Z,11.90
2019-04-01T14:52:35.375Z,14.30
2019-04-01T14:53:35.423Z,15.80
2019-04-01T14:54:35.610Z,15.00
2019-04-01T14:55:35.583Z,10.90
2019-04-01T14:56:35.581Z,15.60
2019-04-01T14:57:35.341Z,15.00
2019-04-01T14:58:35.561Z,12.80
2019-04-01T14:59:35.588Z,13.40
2019-04-01T15:00:35.601Z,13.90
2019-04-01T15:01:35.304Z,11.90
2019-04-01T15:02:35.299Z,14.20
2019-04-01T15:03:35.388Z,14.50
2019-04-01T15:04:35.518Z,15.50
2019-04-01T15:05:35.511Z,11.20
2019-04-01T15:06:35.276Z,13.70
2019-04-01T15:07:35.303Z,12.80
2019-04-01T15:08:35.490Z,14.90
2019-04-01T15:09:35.477Z,11.30
2019-04-01T15:10:35.246Z,15.30
2019-04-01T15:11:35.235Z,13.20
2019-04-01T15:12:35.259Z,14.90
2019-04-01T15:13:35.487Z,13.80
2019-04-01T15:14:35.442Z,12.10
2019-04-01T15:15:35.195Z,15.30
2019-04-01T15:16:35.189Z,12.60
2019-04-01T15:17:37.050Z,12.50
2019-04-01T15:18:35.450Z,14.20
2019-04-01T15:19:35.406Z,14.50
2019-04-01T15:20:35.207Z,18.10
2019-04-01T15:21:35.435Z,15.30
2019-04-01T15:22:35.423Z,13.10
2019-04-01T15:23:35.409Z,11.10
2019-04-01T15:24:35.172Z,12.60
2019-04-01T15:25:35.155Z,12.60
2019-04-01T15:26:35.343Z,17.70
2019-04-01T15:27:35.108Z,16.40
2019-04-01T15:28:35.335Z,14.90
2019-04-01T15:29:35.363Z,18.10
2019-04-01T15:30:35.131Z,12.40
2019-04-01T15:31:35.354Z,14.60
2019-04-01T15:32:35.071Z,12.00
2019-04-01T15:33:35.301Z,12.90
2019-04-01T15:34:35.287Z,16.50
2019-04-01T15:35:35.325Z,13.50
2019-04-01T15:36:35.279Z,11.00
2019-04-01T15:37:35.305Z,16.90
2019-04-01T15:38:35.026Z,12.20
2019-04-01T15:39:35.047Z,15.00
2019-04-01T15:40:35.020Z,12.10
2019-04-01T15:41:35.235Z,15.80
2019-04-01T15:42:35.234Z,13.10